Time;durP1;ratioP1;P1;durP2;ratioP2;P2;SDS_P1;SDS_P2;PMS_P1;PMS_P2;Temp;Humidity;BMP_temperature;BMP_pressure;BME280_temperature;BME280_humidity;BME280_pressure;Samples;Min_cycle;Max_cycle;Signal;HPM_P1;HPM_P2
2021/07/16 00:01:58;;;;;;;18.35;6.80;;;;;;;16.59;72.63;102282.16;4905933;28;20039;-52
2021/07/16 00:04:23;;;;;;;17.63;7.22;;;;;;;16.57;72.29;102267.19;4920632;28;20261;-51
2021/07/16 00:06:49;;;;;;;16.55;6.70;;;;;;;16.59;72.56;102279.53;4924504;28;20177;-50
2021/07/16 00:09:14;;;;;;;15.40;6.93;;;;;;;16.58;72.48;102277.75;4920287;28;20492;-53
2021/07/16 00:11:39;;;;;;;18.38;7.03;;;;;;;16.50;72.46;102276.75;4928818;28;20138;-52
2021/07/16 00:14:05;;;;;;;16.75;6.65;;;;;;;16.50;72.25;102275.88;4920381;28;20032;-52
2021/07/16 00:16:31;;;;;;;18.15;7.15;;;;;;;16.51;72.15;102268.00;4916554;28;20203;-52
2021/07/16 00:18:57;;;;;;;17.20;7.15;;;;;;;16.55;71.71;102274.19;4922932;28;20027;-54
2021/07/16 00:21:22;;;;;;;20.60;7.43;;;;;;;16.52;71.77;102268.91;4921019;28;20937;-52
2021/07/16 00:23:48;;;;;;;17.88;7.28;;;;;;;16.52;71.85;102272.41;4926557;28;20093;-50
2021/07/16 00:26:14;;;;;;;24.52;7.90;;;;;;;16.48;71.78;102272.34;4935388;28;20608;-52
2021/07/16 00:28:40;;;;;;;20.80;8.25;;;;;;;16.50;72.36;102270.63;4922023;28;20497;-49
2021/07/16 00:31:05;;;;;;;19.63;8.05;;;;;;;16.52;72.49;102268.91;4902380;28;20028;-51
2021/07/16 00:33:30;;;;;;;18.17;7.38;;;;;;;16.48;71.43;102269.69;4922727;28;20363;-52
2021/07/16 00:35:56;;;;;;;21.55;7.90;;;;;;;16.48;71.95;102280.22;4923558;28;20035;-53
2021/07/16 00:38:21;;;;;;;23.25;7.60;;;;;;;16.46;71.53;102282.00;4918400;28;20063;-49
2021/07/16 00:40:47;;;;;;;23.73;7.55;;;;;;;16.42;71.26;102285.44;4923106;28;20082;-50
2021/07/16 00:43:12;;;;;;;20.25;7.55;;;;;;;16.33;70.77;102283.59;4924553;28;20035;-50
2021/07/16 00:45:38;;;;;;;22.50;8.15;;;;;;;16.39;70.93;102288.03;4924370;28;20423;-50
2021/07/16 00:48:03;;;;;;;18.15;7.30;;;;;;;16.25;70.35;102290.50;4931648;28;20120;-49
2021/07/16 00:50:37;;;;;;;19.83;7.35;;;;;;;16.28;70.24;102297.56;4925154;28;20670;-48
2021/07/16 00:53:04;;;;;;;23.30;7.88;;;;;;;16.27;70.43;102301.03;4922668;28;20031;-52
2021/07/16 00:55:30;;;;;;;16.27;7.70;;;;;;;16.28;70.16;102301.06;4913812;28;20092;-54
2021/07/16 00:57:56;;;;;;;20.80;7.60;;;;;;;16.18;70.18;102294.78;4921982;28;20074;-49
2021/07/16 01:00:22;;;;;;;18.45;7.50;;;;;;;16.23;70.23;102301.00;4922475;28;20154;-49
2021/07/16 01:02:47;;;;;;;22.58;8.30;;;;;;;16.25;69.73;102293.13;4924152;28;20024;-49
2021/07/16 01:05:15;;;;;;;23.20;7.82;;;;;;;16.17;69.64;102295.66;4932676;28;20051;-48
2021/07/16 01:07:40;;;;;;;20.50;7.88;;;;;;;16.22;69.35;102298.38;4920626;28;20027;-52
2021/07/16 01:10:08;;;;;;;15.27;7.38;;;;;;;16.18;69.55;102301.81;4922045;28;20034;-47
2021/07/16 01:12:34;;;;;;;21.23;7.65;;;;;;;16.16;69.40;102301.78;4906375;28;20038;-49
2021/07/16 01:15:00;;;;;;;15.90;7.60;;;;;;;16.14;69.62;102303.53;4917724;28;20073;-49
2021/07/16 01:17:25;;;;;;;17.75;7.35;;;;;;;16.14;69.63;102300.88;4906293;28;20263;-51
2021/07/16 01:20:08;;;;;;;19.15;7.00;;;;;;;16.13;69.28;102311.38;4932687;28;20037;-53
2021/07/16 01:22:36;;;;;;;19.38;6.90;;;;;;;16.13;69.69;102308.75;4905572;28;20036;-53
2021/07/16 01:25:05;;;;;;;18.30;7.05;;;;;;;16.09;69.33;102305.22;4925356;28;20032;-52
2021/07/16 01:27:30;;;;;;;18.85;7.00;;;;;;;16.09;68.96;102305.22;4919580;28;20659;-54
2021/07/16 01:29:56;;;;;;;18.30;7.43;;;;;;;16.06;69.31;102309.53;4924066;28;20350;-52
2021/07/16 01:32:21;;;;;;;23.45;7.70;;;;;;;16.04;69.28;102313.91;4923260;28;20034;-49
2021/07/16 01:34:47;;;;;;;17.88;7.43;;;;;;;16.08;69.45;102316.59;4919711;28;20507;-48
2021/07/16 01:37:14;;;;;;;15.80;6.60;;;;;;;16.12;70.67;102314.88;4924401;28;20468;-53
2021/07/16 01:39:39;;;;;;;20.67;7.13;;;;;;;16.06;70.19;102310.41;4933048;28;20027;-51
2021/07/16 01:42:09;;;;;;;20.73;6.95;;;;;;;16.08;70.05;102299.91;4911439;28;20104;-52
2021/07/16 01:44:36;;;;;;;27.90;6.90;;;;;;;16.05;69.39;102311.28;4916604;28;20115;-50
2021/07/16 01:47:03;;;;;;;19.58;6.70;;;;;;;16.08;70.14;102306.06;4919591;28;20418;-51
2021/07/16 01:49:28;;;;;;;21.55;6.85;;;;;;;16.02;70.19;102310.38;4923838;28;20384;-50
2021/07/16 01:51:54;;;;;;;18.40;6.75;;;;;;;16.03;69.54;102320.91;4925591;28;20123;-53
2021/07/16 01:54:19;;;;;;;17.85;6.45;;;;;;;15.97;69.71;102320.84;4920595;28;20043;-50
2021/07/16 01:56:45;;;;;;;21.08;6.43;;;;;;;15.97;69.62;102317.31;4944725;28;20031;-50
2021/07/16 01:59:11;;;;;;;17.88;6.50;;;;;;;15.94;69.40;102314.63;4923659;28;20038;-49
2021/07/16 02:01:36;;;;;;;20.00;6.05;;;;;;;15.92;68.60;102311.09;4917274;28;20464;-50
2021/07/16 02:04:02;;;;;;;15.93;5.82;;;;;;;15.89;68.47;102309.31;4922357;28;20316;-52
2021/07/16 02:06:28;;;;;;;21.05;6.20;;;;;;;15.90;68.63;102310.19;4923830;28;20020;-50
2021/07/16 02:08:53;;;;;;;16.92;6.60;;;;;;;15.93;68.97;102313.72;4913770;28;20066;-49
2021/07/16 02:11:21;;;;;;;20.70;7.10;;;;;;;15.91;68.98;102312.84;4925822;28;20024;-51
2021/07/16 02:13:48;;;;;;;21.85;6.45;;;;;;;15.96;69.41;102312.91;4929173;28;20066;-48
2021/07/16 02:16:13;;;;;;;19.67;6.50;;;;;;;15.92;69.27;102311.97;4922852;28;20027;-51
2021/07/16 02:18:39;;;;;;;20.85;6.80;;;;;;;15.91;68.93;102311.97;4920041;28;20035;-53
2021/07/16 02:21:05;;;;;;;22.48;6.50;;;;;;;15.90;69.01;102313.72;4921532;28;20027;-56
2021/07/16 02:23:30;;;;;;;16.30;6.55;;;;;;;15.86;69.36;102309.25;4905681;28;20044;-53
2021/07/16 02:25:57;;;;;;;15.93;6.93;;;;;;;15.87;69.59;102311.00;4914623;28;20489;-51
2021/07/16 02:28:30;;;;;;;18.02;6.68;;;;;;;15.90;69.94;102320.72;4925629;28;20051;-48
2021/07/16 02:30:56;;;;;;;18.57;6.43;;;;;;;15.89;70.24;102325.09;4922027;28;20117;-50
2021/07/16 02:33:22;;;;;;;21.02;6.80;;;;;;;15.88;69.89;102327.69;4904660;28;20298;-52
2021/07/16 02:35:47;;;;;;;17.70;6.22;;;;;;;15.86;69.88;102327.66;4923968;28;20026;-50
2021/07/16 02:38:13;;;;;;;20.13;6.50;;;;;;;15.80;69.90;102331.06;4925151;28;20380;-52
2021/07/16 02:40:39;;;;;;;20.85;7.10;;;;;;;15.80;69.87;102328.44;4918661;28;20390;-51
2021/07/16 02:43:05;;;;;;;21.15;6.82;;;;;;;15.75;69.40;102334.50;4927299;28;20041;-50
2021/07/16 02:45:30;;;;;;;25.60;7.03;;;;;;;15.73;69.09;102325.72;4925525;28;20027;-51
2021/07/16 02:47:56;;;;;;;23.80;6.18;;;;;;;15.79;69.74;102323.19;4916612;28;20027;-52
2021/07/16 02:50:24;;;;;;;17.67;5.80;;;;;;;15.78;69.26;102319.66;4924519;28;21296;-49
2021/07/16 02:52:50;;;;;;;17.67;6.53;;;;;;;15.77;68.96;102310.00;4923938;28;20116;-51
2021/07/16 02:55:15;;;;;;;20.52;6.20;;;;;;;15.76;69.16;102313.50;4924050;28;20384;-48
2021/07/16 02:57:41;;;;;;;17.88;6.00;;;;;;;15.83;69.36;102318.00;4926962;28;20036;-49
2021/07/16 03:00:09;;;;;;;22.25;6.72;;;;;;;15.81;69.65;102317.06;4929605;28;20157;-50
2021/07/16 03:02:40;;;;;;;20.38;6.38;;;;;;;15.80;70.67;102325.81;4923141;28;20035;-54
2021/07/16 03:05:06;;;;;;;20.10;6.70;;;;;;;15.80;71.59;102319.66;4906528;28;20494;-52
2021/07/16 03:07:31;;;;;;;19.63;6.10;;;;;;;15.76;71.47;102316.13;4921751;28;20058;-49
2021/07/16 03:09:56;;;;;;;19.17;6.22;;;;;;;15.75;70.95;102313.47;4918649;28;20575;-48
2021/07/16 03:12:22;;;;;;;19.38;5.85;;;;;;;15.74;69.97;102311.69;4924560;28;20358;-48
2021/07/16 03:14:47;;;;;;;20.05;5.88;;;;;;;15.73;70.92;102317.84;4920901;28;20126;-54
2021/07/16 03:17:12;;;;;;;15.82;5.07;;;;;;;15.74;70.54;102317.84;4923024;28;20024;-48
2021/07/16 03:19:38;;;;;;;22.45;5.53;;;;;;;15.70;69.03;102321.28;4922738;28;20085;-50
2021/07/16 03:22:04;;;;;;;19.00;5.93;;;;;;;15.67;68.39;102316.00;4941142;28;20227;-53
2021/07/16 03:24:29;;;;;;;18.73;6.00;;;;;;;15.71;68.68;102323.06;4920463;28;20027;-53
2021/07/16 03:26:55;;;;;;;16.95;5.53;;;;;;;15.71;68.12;102315.19;4923053;28;20462;-52
2021/07/16 03:29:20;;;;;;;21.60;6.00;;;;;;;15.74;68.19;102324.84;4924671;28;20323;-49
2021/07/16 03:31:45;;;;;;;18.92;5.15;;;;;;;15.75;68.14;102322.25;4918864;28;20027;-49
2021/07/16 03:34:11;;;;;;;16.20;5.63;;;;;;;15.77;68.36;102315.28;4925726;28;20593;-51
2021/07/16 03:36:36;;;;;;;17.58;5.50;;;;;;;15.75;68.42;102316.09;4920836;28;20236;-50
2021/07/16 03:39:03;;;;;;;19.83;5.82;;;;;;;15.74;68.63;102327.47;4921008;28;20113;-49
2021/07/16 03:41:28;;;;;;;20.65;5.90;;;;;;;15.73;68.58;102313.47;4907274;28;20110;-51
2021/07/16 03:43:54;;;;;;;22.50;5.93;;;;;;;15.79;68.63;102317.94;4918772;28;20821;-49
2021/07/16 03:46:19;;;;;;;22.88;5.60;;;;;;;15.78;68.59;102319.66;4922176;28;20054;-49
2021/07/16 03:48:45;;;;;;;20.45;5.80;;;;;;;15.77;69.38;102315.28;4924797;28;20398;-49
2021/07/16 03:51:10;;;;;;;18.42;5.60;;;;;;;15.75;69.45;102316.97;4922633;28;20430;-50
2021/07/16 03:53:36;;;;;;;20.80;5.72;;;;;;;15.76;68.77;102323.13;4908252;28;20498;-49
2021/07/16 03:56:01;;;;;;;16.63;5.70;;;;;;;15.76;68.58;102312.59;4912477;28;20505;-51
2021/07/16 03:58:26;;;;;;;21.42;5.07;;;;;;;15.71;68.28;102315.19;4906035;28;20050;-48
2021/07/16 04:00:52;;;;;;;18.48;5.28;;;;;;;15.74;68.46;102320.47;4913119;28;20070;-50
2021/07/16 04:03:19;;;;;;;18.92;5.32;;;;;;;15.76;69.06;102310.88;4919998;28;20035;-51
2021/07/16 04:05:45;;;;;;;22.50;5.35;;;;;;;15.73;68.16;102312.59;4922915;28;20039;-51
2021/07/16 04:08:16;;;;;;;19.15;5.18;;;;;;;15.79;68.72;102317.94;4923949;28;20019;-49
2021/07/16 04:10:41;;;;;;;22.00;5.32;;;;;;;15.79;68.20;102318.81;4916913;28;20035;-50
2021/07/16 04:13:09;;;;;;;18.10;4.95;;;;;;;15.78;68.32;102324.94;4927970;28;20493;-48
2021/07/16 04:15:35;;;;;;;20.48;5.22;;;;;;;15.79;68.22;102325.81;4916767;28;20032;-51
2021/07/16 04:18:01;;;;;;;18.50;4.82;;;;;;;15.83;69.25;102332.88;4915841;28;20720;-48
2021/07/16 04:20:29;;;;;;;20.40;5.18;;;;;;;15.79;68.30;102331.06;4927904;28;20059;-50
2021/07/16 04:22:55;;;;;;;16.77;5.20;;;;;;;15.88;68.73;102333.81;4919152;28;20035;-51
2021/07/16 04:25:20;;;;;;;25.45;4.80;;;;;;;15.90;68.78;102336.50;4923377;28;20023;-51
2021/07/16 04:27:48;;;;;;;21.55;5.13;;;;;;;15.89;68.87;102340.88;4909909;28;20462;-50
2021/07/16 04:30:15;;;;;;;20.35;5.25;;;;;;;15.86;68.98;102330.28;4928228;28;20039;-48
2021/07/16 04:32:42;;;;;;;19.10;4.90;;;;;;;15.84;69.15;102339.91;4927198;28;20101;-52
2021/07/16 04:35:09;;;;;;;21.13;4.95;;;;;;;15.88;68.78;102338.19;4933366;28;20114;-57
2021/07/16 04:37:35;;;;;;;18.40;4.72;;;;;;;15.88;68.87;102343.47;4926094;28;20419;-50
2021/07/16 04:40:03;;;;;;;24.05;5.63;;;;;;;15.88;69.01;102341.72;4922047;28;20079;-49
2021/07/16 04:42:28;;;;;;;16.95;4.95;;;;;;;15.90;68.48;102337.38;4925085;28;20410;-50
2021/07/16 04:44:54;;;;;;;24.15;5.38;;;;;;;15.96;69.21;102328.69;4931916;28;20134;-51
2021/07/16 04:47:19;;;;;;;22.77;5.15;;;;;;;16.02;68.66;102331.41;4925814;28;20035;-50
2021/07/16 04:49:45;;;;;;;17.40;5.22;;;;;;;16.16;68.81;102332.50;4925506;28;20039;-52
2021/07/16 04:52:10;;;;;;;17.90;4.78;;;;;;;16.24;68.99;102330.81;4906937;28;20038;-51
2021/07/16 04:54:35;;;;;;;21.17;4.90;;;;;;;16.21;68.20;102339.59;4930116;28;20543;-52
2021/07/16 04:57:01;;;;;;;19.38;5.18;;;;;;;16.41;68.21;102337.19;4923135;28;20547;-50
2021/07/16 04:59:26;;;;;;;20.77;5.20;;;;;;;16.44;67.57;102337.25;4922931;28;21834;-50
2021/07/16 05:01:52;;;;;;;15.95;4.72;;;;;;;16.50;67.56;102344.31;4922568;28;20164;-53
2021/07/16 05:04:18;;;;;;;19.02;4.85;;;;;;;16.51;67.62;102340.84;4920402;28;20035;-49
2021/07/16 05:06:43;;;;;;;18.17;4.70;;;;;;;16.58;67.43;102340.94;4925760;28;20027;-51
2021/07/16 05:09:09;;;;;;;20.88;5.00;;;;;;;16.59;67.64;102347.06;4924406;28;20027;-51
2021/07/16 05:11:34;;;;;;;21.30;4.93;;;;;;;16.61;67.35;102338.34;4926643;28;20039;-53
2021/07/16 05:14:01;;;;;;;23.13;4.95;;;;;;;16.57;67.37;102335.66;4916986;28;20024;-54
2021/07/16 05:16:27;;;;;;;20.83;4.85;;;;;;;16.62;67.55;102344.50;4923517;28;20038;-53
2021/07/16 05:18:52;;;;;;;22.98;4.80;;;;;;;16.49;67.17;102343.44;4926764;28;20024;-54
2021/07/16 05:21:17;;;;;;;18.15;4.70;;;;;;;16.48;68.10;102346.94;4933124;28;20031;-50
2021/07/16 05:23:43;;;;;;;24.55;4.90;;;;;;;16.31;67.82;102343.22;4902181;28;20107;-52
2021/07/16 05:26:09;;;;;;;19.67;5.05;;;;;;;16.28;68.31;102358.09;4920677;28;20043;-50
2021/07/16 05:28:34;;;;;;;21.88;4.97;;;;;;;16.24;69.09;102357.13;4929937;28;20070;-49
2021/07/16 05:30:59;;;;;;;18.67;4.88;;;;;;;16.18;68.75;102360.56;4921228;28;20525;-52
2021/07/16 05:33:25;;;;;;;22.23;4.68;;;;;;;16.16;68.63;102362.28;4923750;28;20039;-54
2021/07/16 05:35:50;;;;;;;20.88;4.88;;;;;;;16.20;68.91;102364.13;4904129;28;20126;-50
2021/07/16 05:38:16;;;;;;;22.30;4.93;;;;;;;16.38;69.44;102367.88;4924095;28;20042;-50
2021/07/16 05:40:41;;;;;;;20.30;4.80;;;;;;;16.47;69.14;102363.59;4923740;28;20038;-51
2021/07/16 05:43:11;;;;;;;19.65;4.90;;;;;;;16.53;67.62;102365.41;4930795;28;20039;-49
2021/07/16 05:45:38;;;;;;;24.42;4.82;;;;;;;16.54;66.86;102359.28;4924090;28;20034;-50
2021/07/16 05:48:04;;;;;;;22.38;4.60;;;;;;;16.63;67.49;102370.88;4922377;28;20066;-51
2021/07/16 05:50:30;;;;;;;20.13;5.05;;;;;;;16.73;67.37;102366.59;4923648;28;20024;-49
2021/07/16 05:52:55;;;;;;;22.05;5.13;;;;;;;16.87;66.37;102366.75;4920597;28;20411;-50
2021/07/16 05:55:21;;;;;;;18.67;4.72;;;;;;;16.89;66.54;102365.91;4927375;28;20031;-51
2021/07/16 05:57:46;;;;;;;20.35;4.50;;;;;;;17.00;66.42;102371.28;4941495;28;20495;-50
2021/07/16 06:00:12;;;;;;;21.13;4.47;;;;;;;17.07;66.65;102369.59;4924235;28;20031;-49
2021/07/16 06:02:38;;;;;;;18.85;4.60;;;;;;;17.10;67.34;102370.50;4925718;28;20035;-54
2021/07/16 06:05:03;;;;;;;16.02;4.45;;;;;;;17.02;66.32;102369.53;4930476;28;20030;-49
2021/07/16 06:07:29;;;;;;;15.98;4.90;;;;;;;17.02;66.65;102374.81;4924289;28;20085;-52
2021/07/16 06:09:54;;;;;;;29.38;4.95;;;;;;;16.95;67.35;102376.53;4920968;28;20024;-50
2021/07/16 06:12:22;;;;;;;18.08;4.65;;;;;;;16.84;67.51;102386.03;4931727;28;21057;-49
2021/07/16 06:14:47;;;;;;;16.88;4.18;;;;;;;16.60;66.55;102380.47;4925120;28;20039;-51
2021/07/16 06:17:13;;;;;;;19.55;4.60;;;;;;;16.74;66.35;102384.16;4910293;28;20028;-51
2021/07/16 06:19:38;;;;;;;20.42;5.18;;;;;;;16.74;66.06;102385.91;4924263;28;20380;-51
2021/07/16 06:22:05;;;;;;;20.65;4.85;;;;;;;16.79;66.79;102393.00;4918163;28;20584;-52
2021/07/16 06:24:30;;;;;;;19.73;4.93;;;;;;;16.75;66.32;102392.94;4906720;28;20058;-54
2021/07/16 06:26:56;;;;;;;19.48;4.72;;;;;;;16.90;66.95;102391.34;4927341;28;20166;-51
2021/07/16 06:29:22;;;;;;;21.00;4.80;;;;;;;16.95;68.42;102397.59;4924728;28;20122;-50
2021/07/16 06:31:47;;;;;;;19.17;4.60;;;;;;;17.10;66.28;102399.50;4920611;28;20062;-49
2021/07/16 06:34:12;;;;;;;24.00;4.78;;;;;;;17.03;65.16;102409.09;4922834;28;20049;-49
2021/07/16 06:36:38;;;;;;;21.42;4.93;;;;;;;17.22;67.25;102401.38;4919329;28;20024;-48
2021/07/16 06:39:03;;;;;;;20.90;4.32;;;;;;;17.43;64.50;102398.97;4921636;28;20066;-51
2021/07/16 06:41:29;;;;;;;16.10;4.25;;;;;;;17.77;64.09;102395.78;4923782;28;20161;-49
2021/07/16 06:43:55;;;;;;;23.42;4.55;;;;;;;18.21;63.83;102401.38;4921988;28;20055;-52
2021/07/16 06:46:20;;;;;;;19.25;4.47;;;;;;;18.48;62.53;102397.97;4925788;28;20027;-51
2021/07/16 06:48:46;;;;;;;21.55;4.78;;;;;;;18.39;61.86;102400.59;4917494;28;20228;-50
2021/07/16 06:51:12;;;;;;;16.17;4.35;;;;;;;18.71;60.91;102392.84;4918844;28;20035;-51
2021/07/16 06:53:38;;;;;;;20.45;4.95;;;;;;;18.76;59.92;102409.59;4921923;28;20032;-49
2021/07/16 06:56:03;;;;;;;22.13;4.32;;;;;;;18.86;60.04;102413.16;4910986;28;20818;-48
2021/07/16 06:58:29;;;;;;;21.38;4.15;;;;;;;19.10;61.28;102405.28;4909862;28;20566;-50
2021/07/16 07:00:54;;;;;;;18.17;4.30;;;;;;;19.23;60.60;102409.75;4919018;28;20070;-53
2021/07/16 07:03:25;;;;;;;18.70;4.43;;;;;;;19.01;60.89;102413.22;4924745;28;20570;-51
2021/07/16 07:05:51;;;;;;;19.05;3.78;;;;;;;19.04;61.24;102407.94;4924421;28;20586;-49
2021/07/16 07:08:16;;;;;;;20.85;4.63;;;;;;;19.17;61.58;102411.47;4931010;28;20033;-53
2021/07/16 07:10:41;;;;;;;19.58;4.18;;;;;;;19.37;60.53;102423.00;4923075;28;20023;-53
2021/07/16 07:13:07;;;;;;;16.60;4.55;;;;;;;18.95;59.25;102421.13;4916874;28;20028;-50
2021/07/16 07:15:35;;;;;;;23.25;4.10;;;;;;;18.72;60.49;102417.53;4934551;28;20137;-51
2021/07/16 07:18:01;;;;;;;24.05;3.80;;;;;;;18.85;60.31;102420.19;4915635;28;20028;-53
2021/07/16 07:20:26;;;;;;;24.35;4.70;;;;;;;19.00;59.77;102416.72;4922618;28;20074;-54
2021/07/16 07:22:52;;;;;;;19.85;4.30;;;;;;;19.10;60.41;102420.28;4917801;28;20019;-54
2021/07/16 07:25:18;;;;;;;20.13;4.75;;;;;;;19.28;60.55;102421.22;4919906;28;20114;-52
2021/07/16 07:27:43;;;;;;;20.80;4.97;;;;;;;18.99;60.86;102425.53;4921491;28;20369;-49
2021/07/16 07:30:09;;;;;;;25.25;5.03;;;;;;;18.68;61.29;102434.22;4917012;28;20035;-51
2021/07/16 07:32:35;;;;;;;22.05;4.47;;;;;;;18.81;62.30;102425.47;4917854;28;20027;-54
2021/07/16 07:35:00;;;;;;;18.35;4.68;;;;;;;18.78;62.15;102433.41;4925791;28;20063;-49
2021/07/16 07:37:26;;;;;;;18.90;4.20;;;;;;;19.37;61.62;102434.47;4930642;28;20027;-47
2021/07/16 07:39:51;;;;;;;24.45;4.82;;;;;;;19.59;59.45;102437.16;4921896;28;20036;-48
2021/07/16 07:42:21;;;;;;;17.20;4.22;;;;;;;19.59;58.36;102427.47;4919262;28;20298;-49
2021/07/16 07:44:46;;;;;;;17.33;4.60;;;;;;;19.51;57.53;102441.56;4918308;28;20058;-53
2021/07/16 07:47:12;;;;;;;18.35;4.47;;;;;;;19.69;57.59;102437.19;4922018;28;20494;-51
2021/07/16 07:49:37;;;;;;;16.83;4.35;;;;;;;19.79;58.55;102436.28;4921255;28;20417;-51
2021/07/16 07:52:04;;;;;;;19.30;4.70;;;;;;;19.94;58.05;102442.47;4906280;28;20043;-53
2021/07/16 07:54:30;;;;;;;17.27;4.57;;;;;;;19.91;57.80;102453.06;4918581;28;20035;-49
2021/07/16 07:56:55;;;;;;;19.60;4.57;;;;;;;19.65;57.21;102448.63;4919444;28;20035;-49
2021/07/16 07:59:22;;;;;;;24.10;4.70;;;;;;;20.37;57.51;102440.69;4916512;28;20031;-52
2021/07/16 08:01:48;;;;;;;17.90;4.60;;;;;;;19.95;55.82;102446.88;4918558;28;20055;-50
2021/07/16 08:04:13;;;;;;;19.55;5.18;;;;;;;19.92;56.57;102449.53;4921800;28;20047;-51
2021/07/16 08:06:39;;;;;;;17.52;4.93;;;;;;;19.87;59.20;102441.59;4924297;28;20038;-52
2021/07/16 08:09:04;;;;;;;20.35;4.97;;;;;;;19.85;60.09;102449.53;4916036;28;20035;-54
2021/07/16 08:11:30;;;;;;;24.23;5.40;;;;;;;19.90;58.84;102448.63;4910399;28;20051;-52
2021/07/16 08:13:56;;;;;;;19.88;4.95;;;;;;;19.96;59.67;102449.53;4907783;28;20554;-52
2021/07/16 08:16:22;;;;;;;21.95;5.05;;;;;;;19.79;57.07;102451.28;4924371;28;20038;-50
2021/07/16 08:18:47;;;;;;;18.42;4.70;;;;;;;20.10;57.38;102452.16;4922755;28;20376;-48
2021/07/16 08:21:12;;;;;;;17.48;4.43;;;;;;;20.49;57.82;102456.56;4915435;28;20122;-51
2021/07/16 08:23:38;;;;;;;23.13;5.40;;;;;;;20.34;58.96;102453.94;4925190;28;20039;-47
2021/07/16 08:26:03;;;;;;;18.60;5.20;;;;;;;19.77;56.96;102469.81;4923800;28;20302;-50
2021/07/16 08:28:29;;;;;;;19.60;4.97;;;;;;;19.48;58.32;102468.88;4918624;28;20143;-52
2021/07/16 08:30:54;;;;;;;20.48;4.80;;;;;;;19.64;58.27;102468.03;4922239;28;20773;-48
2021/07/16 08:33:20;;;;;;;18.88;5.07;;;;;;;19.55;59.17;102473.31;4908601;28;20075;-56
2021/07/16 08:35:45;;;;;;;18.75;5.40;;;;;;;19.74;59.22;102475.13;4919163;28;20546;-53
2021/07/16 08:38:11;;;;;;;16.55;4.82;;;;;;;19.55;57.43;102478.59;4922585;28;20035;-51
2021/07/16 08:40:36;;;;;;;22.77;5.28;;;;;;;19.23;57.35;102473.19;4909294;28;20146;-51
2021/07/16 08:43:02;;;;;;;17.88;5.05;;;;;;;19.30;57.77;102482.94;4922303;28;20071;-49
2021/07/16 08:45:27;;;;;;;25.92;5.38;;;;;;;19.04;59.17;102476.66;4924999;28;20023;-51
2021/07/16 08:47:53;;;;;;;19.48;5.15;;;;;;;19.15;59.44;102474.06;4921981;28;20134;-53
2021/07/16 08:50:19;;;;;;;26.83;5.70;;;;;;;19.13;59.72;102473.19;4928553;28;20174;-51
2021/07/16 08:52:46;;;;;;;25.95;6.15;;;;;;;19.31;61.57;102474.13;4925933;28;20039;-50
2021/07/16 08:55:13;;;;;;;23.23;5.88;;;;;;;19.70;60.28;102483.91;4918359;28;20092;-49
2021/07/16 08:57:38;;;;;;;19.10;5.38;;;;;;;19.52;59.36;102480.38;4934180;28;20052;-51
2021/07/16 09:00:06;;;;;;;21.35;5.10;;;;;;;19.84;60.13;102481.28;4917800;28;20138;-49
2021/07/16 09:02:33;;;;;;;25.00;5.68;;;;;;;19.83;59.11;102487.44;4922756;28;20570;-49
2021/07/16 09:05:00;;;;;;;18.88;5.20;;;;;;;19.61;59.16;102483.03;4916324;28;20441;-52
2021/07/16 09:07:26;;;;;;;19.27;5.28;;;;;;;19.59;57.91;102484.78;4920186;28;20396;-50
2021/07/16 09:10:12;;;;;;;20.05;5.13;;;;;;;19.58;58.14;102491.81;4900370;28;20028;-50
2021/07/16 09:12:39;;;;;;;16.35;5.32;;;;;;;19.56;57.30;102487.44;4906426;28;20146;-50
2021/07/16 09:15:16;;;;;;;18.08;5.03;;;;;;;19.48;56.54;102481.22;4906856;28;20024;-50
2021/07/16 09:17:44;;;;;;;17.00;5.10;;;;;;;19.55;56.79;102483.91;4920514;28;20070;-51
2021/07/16 09:20:29;;;;;;;20.90;5.68;;;;;;;19.83;56.72;102485.69;4904003;28;20036;-47
2021/07/16 09:23:17;;;;;;;24.70;6.05;;;;;;;20.18;59.81;102492.78;4918393;28;20027;-49
2021/07/16 09:25:43;;;;;;;19.35;5.70;;;;;;;20.73;57.40;102490.06;4923619;28;20157;-49
2021/07/16 09:28:23;;;;;;;18.48;5.75;;;;;;;21.44;56.46;102482.69;4939828;28;20048;-48
2021/07/16 09:30:48;;;;;;;16.10;5.65;;;;;;;22.01;54.13;102482.31;4925399;28;20043;-48
2021/07/16 09:33:15;;;;;;;16.75;5.22;;;;;;;22.05;52.41;102478.72;4909390;28;20025;-52
2021/07/16 09:35:41;;;;;;;18.00;4.80;;;;;;;21.90;51.73;102482.34;4930974;28;20145;-52
2021/07/16 09:38:14;;;;;;;15.70;5.00;;;;;;;21.97;53.35;102488.53;4920716;28;20465;-50
2021/07/16 09:40:45;;;;;;;18.90;5.28;;;;;;;22.00;54.71;102488.53;4927579;28;20562;-49
2021/07/16 09:43:11;;;;;;;20.90;5.55;;;;;;;21.97;53.75;102486.75;4920139;28;20024;-50
2021/07/16 09:45:38;;;;;;;24.57;5.53;;;;;;;22.22;53.78;102498.94;4928345;28;20031;-51
2021/07/16 09:48:23;;;;;;;18.80;5.05;;;;;;;21.84;54.18;102490.38;4918702;28;20987;-50
2021/07/16 09:50:48;;;;;;;21.30;5.22;;;;;;;21.29;52.60;102488.06;4926409;28;20557;-49
2021/07/16 09:53:26;;;;;;;24.55;5.20;;;;;;;21.82;55.30;102485.09;4913818;28;20040;-50
2021/07/16 09:56:11;;;;;;;20.05;4.80;;;;;;;22.58;53.58;102492.38;4919209;28;20112;-52
2021/07/16 09:58:37;;;;;;;16.52;4.75;;;;;;;22.82;53.12;102501.00;4920177;28;20574;-52
2021/07/16 10:01:02;;;;;;;17.10;4.72;;;;;;;23.03;50.01;102495.44;4923312;28;20174;-49
2021/07/16 10:03:28;;;;;;;18.02;5.40;;;;;;;22.69;51.70;102499.38;4923581;28;20455;-52
2021/07/16 10:05:55;;;;;;;15.32;4.53;;;;;;;22.50;50.93;102509.31;4925336;28;20047;-50
2021/07/16 10:08:20;;;;;;;16.25;5.03;;;;;;;22.01;52.04;102506.22;4916228;28;20031;-51
2021/07/16 10:10:47;;;;;;;17.13;4.90;;;;;;;22.29;52.37;102514.81;4909979;28;20024;-53
2021/07/16 10:13:13;;;;;;;16.88;5.13;;;;;;;22.30;50.30;102509.50;4908471;28;20032;-48
2021/07/16 10:15:41;;;;;;;17.25;5.30;;;;;;;22.22;51.68;102516.66;4909126;28;20438;-50
2021/07/16 10:18:07;;;;;;;15.82;4.47;;;;;;;22.25;51.66;102522.84;4926882;28;20697;-52
2021/07/16 10:20:35;;;;;;;19.52;5.70;;;;;;;21.78;54.08;102527.56;4927027;28;20031;-49
2021/07/16 10:23:00;;;;;;;23.40;5.57;;;;;;;21.74;53.01;102521.41;4919235;28;20027;-49
2021/07/16 10:25:26;;;;;;;19.98;5.43;;;;;;;22.18;54.96;102522.91;4909538;28;20535;-50
2021/07/16 10:27:52;;;;;;;21.17;5.25;;;;;;;22.46;53.60;102520.84;4922607;28;20511;-53
2021/07/16 10:30:19;;;;;;;20.58;5.00;;;;;;;22.85;51.88;102520.47;4917388;28;20467;-52
2021/07/16 10:32:54;;;;;;;19.83;4.93;;;;;;;22.40;50.55;102527.13;4899443;28;20023;-51
2021/07/16 10:35:26;;;;;;;22.05;5.53;;;;;;;22.38;50.21;102520.06;4922958;28;20406;-53
2021/07/16 10:37:57;;;;;;;17.20;5.23;;;;;;;22.22;50.85;102524.63;4929048;28;20026;-50
2021/07/16 10:40:45;;;;;;;21.77;5.35;;;;;;;22.34;51.96;102524.50;4927181;28;20032;-50
2021/07/16 10:43:23;;;;;;;17.40;5.18;;;;;;;22.81;54.20;102526.72;4929618;28;20035;-51
2021/07/16 10:45:49;;;;;;;20.20;5.45;;;;;;;22.87;51.68;102523.97;4923275;28;20028;-51
2021/07/16 10:48:19;;;;;;;22.60;5.13;;;;;;;22.96;51.86;102529.22;4924632;28;20047;-50
2021/07/16 10:50:46;;;;;;;20.20;5.75;;;;;;;22.45;51.50;102527.06;4905875;28;20464;-49
2021/07/16 10:53:28;;;;;;;19.85;7.20;;;;;;;21.81;55.84;102524.91;4919936;28;20127;-50
2021/07/16 10:55:56;;;;;;;19.17;6.07;;;;;;;22.14;55.90;102532.66;4930913;28;20027;-49
2021/07/16 10:58:45;;;;;;;18.60;5.57;;;;;;;22.15;51.25;102526.44;4922521;28;20316;-50
2021/07/16 11:01:11;;;;;;;19.40;6.03;;;;;;;22.69;52.26;102523.31;4924701;28;20206;-50
2021/07/16 11:03:38;;;;;;;21.42;5.90;;;;;;;22.79;49.89;102533.84;4920577;28;20039;-49
2021/07/16 11:06:05;;;;;;;20.60;5.75;;;;;;;23.09;51.92;102523.75;4928412;28;20119;-48
2021/07/16 11:08:37;;;;;;;22.50;5.50;;;;;;;22.11;50.15;102524.72;4917755;28;20023;-48
2021/07/16 11:11:04;;;;;;;14.50;5.43;;;;;;;21.61;52.62;102538.31;4922307;28;20043;-52
2021/07/16 11:13:42;;;;;;;20.70;5.80;;;;;;;21.37;52.31;102522.53;4921909;28;20020;-49
2021/07/16 11:16:35;;;;;;;18.55;5.53;;;;;;;21.62;54.52;102521.50;4919792;28;20031;-51